Time;durP1;ratioP1;P1;durP2;ratioP2;P2;SDS_P1;SDS_P2;PMS_P1;PMS_P2;Temp;Humidity;BMP_temperature;BMP_pressure;BME280_temperature;BME280_humidity;BME280_pressure;Samples;Min_cycle;Max_cycle;Signal;HPM_P1;HPM_P2
2022/04/15 00:02:06;;;;;;;18.95;10.85;;;;;;;17.04;41.99;101692.31;5031953;28;20049;-60
2022/04/15 00:04:34;;;;;;;22.85;11.40;;;;;;;17.01;42.33;101689.03;5031717;28;20119;-60
2022/04/15 00:07:00;;;;;;;19.08;9.88;;;;;;;17.02;42.48;101696.03;5032120;28;20050;-60
2022/04/15 00:09:28;;;;;;;21.63;10.93;;;;;;;16.96;42.51;101698.16;5039182;28;20076;-61
2022/04/15 00:11:56;;;;;;;18.33;9.80;;;;;;;16.94;42.43;101701.88;5051237;28;20052;-60
2022/04/15 00:14:23;;;;;;;18.55;10.45;;;;;;;16.91;42.86;101700.28;5051083;28;20501;-61
2022/04/15 00:16:49;;;;;;;20.25;10.38;;;;;;;16.88;42.95;101702.25;5052166;28;20478;-60
2022/04/15 00:19:16;;;;;;;19.02;10.32;;;;;;;16.86;42.91;101699.72;5052056;28;20490;-61
2022/04/15 00:21:43;;;;;;;18.67;10.52;;;;;;;16.85;42.90;101694.50;5052044;28;20501;-60
2022/04/15 00:24:09;;;;;;;16.83;9.90;;;;;;;16.81;43.07;101697.38;5052110;28;20101;-60
2022/04/15 00:26:36;;;;;;;19.55;9.95;;;;;;;16.79;43.16;101693.97;5052247;28;20049;-60
2022/04/15 00:29:06;;;;;;;19.73;10.02;;;;;;;16.77;43.55;101703.84;5051142;28;20572;-61
2022/04/15 00:31:34;;;;;;;16.38;9.95;;;;;;;16.70;43.48;101699.06;5032153;28;20096;-60
2022/04/15 00:34:03;;;;;;;19.08;9.68;;;;;;;16.65;43.83;101699.34;5032006;28;20085;-60
2022/04/15 00:36:30;;;;;;;15.63;9.60;;;;;;;16.63;43.98;101696.81;5032214;28;20104;-61
2022/04/15 00:38:56;;;;;;;17.40;10.02;;;;;;;16.61;43.96;101693.41;5031952;28;20053;-60
2022/04/15 00:41:23;;;;;;;21.17;10.18;;;;;;;16.57;43.88;101691.91;5032165;28;20046;-60
2022/04/15 00:43:53;;;;;;;18.48;10.20;;;;;;;16.54;44.21;101696.56;5044599;28;20092;-60
2022/04/15 00:46:20;;;;;;;16.08;9.88;;;;;;;16.53;44.08;101698.38;5050657;28;20077;-61
2022/04/15 00:48:47;;;;;;;17.60;9.43;;;;;;;16.50;44.26;101698.56;5039047;28;20084;-61
2022/04/15 00:51:13;;;;;;;16.73;9.23;;;;;;;16.47;44.41;101694.31;5032131;28;20076;-61
2022/04/15 00:53:42;;;;;;;18.08;9.40;;;;;;;16.47;44.20;101701.44;5034755;28;20046;-61
2022/04/15 00:56:11;;;;;;;15.23;8.93;;;;;;;16.44;44.28;101688.38;5035763;28;20493;-61
2022/04/15 00:58:39;;;;;;;18.77;9.07;;;;;;;16.40;44.45;101693.03;5035872;28;20092;-61
2022/04/15 01:01:07;;;;;;;18.60;9.30;;;;;;;16.38;44.49;101687.00;5035733;28;20084;-61
2022/04/15 01:03:34;;;;;;;15.70;8.65;;;;;;;16.38;44.66;101687.00;5035082;28;20067;-61
2022/04/15 01:06:04;;;;;;;17.95;9.05;;;;;;;16.37;44.50;101689.75;5035539;28;20046;-61
2022/04/15 01:08:31;;;;;;;14.80;8.95;;;;;;;16.35;44.53;101687.19;5035679;28;20046;-61
2022/04/15 01:11:02;;;;;;;17.23;9.15;;;;;;;16.31;44.68;101683.88;5035555;28;20050;-61
2022/04/15 01:13:32;;;;;;;20.17;9.00;;;;;;;16.28;44.89;101684.09;5035612;28;20080;-61
2022/04/15 01:16:00;;;;;;;18.10;8.88;;;;;;;16.29;44.96;101682.28;5035503;28;20056;-61
2022/04/15 01:18:27;;;;;;;17.23;8.88;;;;;;;16.26;44.74;101690.44;5036739;28;20490;-61
2022/04/15 01:20:53;;;;;;;16.35;9.40;;;;;;;16.23;44.96;101688.84;5054021;28;20067;-61
2022/04/15 01:23:21;;;;;;;15.82;9.20;;;;;;;16.17;45.02;101681.31;5055160;28;20410;-61
2022/04/15 01:25:48;;;;;;;16.65;9.18;;;;;;;16.11;45.36;101681.69;5055226;28;20056;-61
2022/04/15 01:28:16;;;;;;;17.50;9.23;;;;;;;16.06;45.22;101681.16;5055103;28;20049;-61
2022/04/15 01:30:45;;;;;;;17.15;9.70;;;;;;;16.04;45.48;101681.25;5055295;28;20048;-61
2022/04/15 01:33:11;;;;;;;14.68;8.90;;;;;;;15.99;45.29;101676.25;5054825;28;20049;-61
2022/04/15 01:35:40;;;;;;;13.75;8.63;;;;;;;15.94;45.78;101683.66;5053280;28;20128;-60
2022/04/15 01:38:10;;;;;;;15.77;8.95;;;;;;;15.90;45.80;101683.97;5034456;28;20053;-61
2022/04/15 01:40:37;;;;;;;15.75;9.20;;;;;;;15.79;46.13;101693.38;5035239;28;20086;-61
2022/04/15 01:43:04;;;;;;;17.80;9.85;;;;;;;15.67;46.20;101688.88;5034882;28;20085;-61
2022/04/15 01:45:31;;;;;;;14.45;9.18;;;;;;;15.63;46.25;101695.28;5035078;28;20524;-60
2022/04/15 01:47:58;;;;;;;16.08;9.27;;;;;;;15.62;46.33;101697.09;5034822;28;20551;-61
2022/04/15 01:50:25;;;;;;;15.07;8.82;;;;;;;15.60;46.31;101692.84;5034865;28;20073;-61
2022/04/15 01:52:51;;;;;;;14.07;8.68;;;;;;;15.54;46.26;101696.75;5034778;28;20494;-61
2022/04/15 01:55:18;;;;;;;14.20;8.27;;;;;;;15.49;46.27;101691.72;5034430;28;20045;-61
2022/04/15 01:57:45;;;;;;;17.25;9.40;;;;;;;15.49;46.14;101696.16;5035079;28;20080;-61
2022/04/15 02:00:12;;;;;;;15.52;8.80;;;;;;;15.49;46.15;101704.97;5034618;28;20545;-61
2022/04/15 02:02:38;;;;;;;17.60;8.18;;;;;;;15.52;46.41;101693.34;5034676;28;20049;-61
2022/04/15 02:05:06;;;;;;;13.15;7.90;;;;;;;15.44;46.28;101699.09;5034462;28;20076;-61
2022/04/15 02:07:32;;;;;;;14.10;7.95;;;;;;;15.41;46.17;101695.78;5034473;28;20072;-61
2022/04/15 02:09:59;;;;;;;16.55;9.85;;;;;;;15.39;46.44;101692.38;5034450;28;20111;-61
2022/04/15 02:12:26;;;;;;;19.25;8.57;;;;;;;15.37;46.60;101691.66;5034036;28;20081;-60
2022/04/15 02:14:52;;;;;;;15.93;8.57;;;;;;;15.30;46.69;101692.03;5034518;28;20132;-61
2022/04/15 02:17:19;;;;;;;12.27;7.97;;;;;;;15.26;46.49;101689.66;5034435;28;20080;-61
2022/04/15 02:19:45;;;;;;;14.38;8.93;;;;;;;15.24;46.56;101688.91;5034230;28;20530;-61
2022/04/15 02:22:12;;;;;;;17.40;8.68;;;;;;;15.19;46.79;101694.47;5034155;28;20396;-61
2022/04/15 02:24:38;;;;;;;17.35;8.75;;;;;;;15.14;46.90;101689.44;5034260;28;20081;-61
2022/04/15 02:27:05;;;;;;;15.40;8.38;;;;;;;15.15;46.93;101695.59;5034167;28;20487;-61
2022/04/15 02:29:32;;;;;;;14.48;8.57;;;;;;;15.08;46.97;101688.97;5033567;28;20125;-61
2022/04/15 02:31:59;;;;;;;13.80;8.60;;;;;;;15.05;47.09;101690.03;5034235;28;20054;-61
2022/04/15 02:34:25;;;;;;;14.65;8.43;;;;;;;15.03;47.19;101691.91;5034209;28;20482;-61
2022/04/15 02:36:52;;;;;;;13.00;8.02;;;;;;;15.03;47.23;101686.59;5033969;28;20494;-61
2022/04/15 02:39:18;;;;;;;15.55;8.30;;;;;;;15.00;47.24;101692.94;5033925;28;20060;-61
2022/04/15 02:41:45;;;;;;;14.57;7.85;;;;;;;14.98;47.55;101688.69;5033935;28;20084;-61
2022/04/15 02:44:12;;;;;;;14.55;7.53;;;;;;;14.95;47.41;101694.16;5033721;28;20081;-60
2022/04/15 02:46:38;;;;;;;15.40;7.40;;;;;;;14.95;47.55;101694.16;5033637;28;20453;-61
2022/04/15 02:49:05;;;;;;;14.52;8.18;;;;;;;14.97;47.47;101697.53;5033841;28;20466;-61
2022/04/15 02:51:33;;;;;;;16.30;7.95;;;;;;;14.90;47.54;101691.78;5033801;28;20068;-60
2022/04/15 02:53:59;;;;;;;15.57;8.38;;;;;;;14.80;47.88;101694.13;5033815;28;20103;-61
2022/04/15 02:56:26;;;;;;;17.85;9.00;;;;;;;14.71;47.92;101699.94;5033673;28;20095;-61
2022/04/15 02:58:53;;;;;;;16.63;8.75;;;;;;;14.67;48.08;101699.28;5033561;28;20091;-61
2022/04/15 03:01:20;;;;;;;24.40;9.07;;;;;;;14.63;48.10;101695.09;5032973;28;20080;-61
2022/04/15 03:03:47;;;;;;;50.38;10.85;;;;;;;14.57;48.49;101694.59;5043719;28;20095;-60
2022/04/15 03:06:13;;;;;;;54.90;12.63;;;;;;;14.56;48.53;101696.38;5050293;28;20103;-61
2022/04/15 03:08:40;;;;;;;63.72;13.90;;;;;;;14.54;48.44;101683.28;5049788;28;20088;-60
2022/04/15 03:11:07;;;;;;;55.72;10.55;;;;;;;14.56;48.65;101688.44;5049908;28;20489;-61
2022/04/15 03:13:34;;;;;;;38.03;10.60;;;;;;;14.49;48.58;101684.50;5049918;28;20410;-60
2022/04/15 03:16:03;;;;;;;39.13;9.60;;;;;;;14.45;48.49;101689.09;5049556;28;20052;-61
2022/04/15 03:18:30;;;;;;;33.35;9.30;;;;;;;14.41;48.59;101699.91;5045064;28;20053;-61
2022/04/15 03:20:57;;;;;;;28.10;8.88;;;;;;;14.39;48.48;101688.59;5029947;28;20104;-61
2022/04/15 03:23:24;;;;;;;24.00;8.02;;;;;;;14.36;48.47;101693.13;5029851;28;20084;-61
2022/04/15 03:25:50;;;;;;;20.10;8.25;;;;;;;14.40;48.52;101691.16;5030272;28;20474;-60
2022/04/15 03:28:17;;;;;;;24.95;9.00;;;;;;;14.37;48.41;101691.31;5029791;28;20056;-61
2022/04/15 03:30:43;;;;;;;21.88;8.57;;;;;;;14.29;48.41;101694.41;5029693;28;20100;-61
2022/04/15 03:33:10;;;;;;;19.63;9.35;;;;;;;14.24;48.69;101687.69;5029912;28;20100;-61
2022/04/15 03:35:37;;;;;;;21.27;9.38;;;;;;;14.19;49.07;101690.59;5029843;28;20204;-60
2022/04/15 03:38:04;;;;;;;26.45;9.88;;;;;;;14.18;49.31;101686.22;5029242;28;20386;-61
2022/04/15 03:40:30;;;;;;;23.20;9.70;;;;;;;14.16;49.31;101685.50;5029632;28;20053;-61
2022/04/15 03:42:57;;;;;;;22.42;8.48;;;;;;;14.15;49.43;101689.06;5029394;28;20490;-60
2022/04/15 03:45:24;;;;;;;21.48;8.82;;;;;;;14.09;49.56;101684.97;5029557;28;20041;-61
2022/04/15 03:47:54;;;;;;;19.63;8.52;;;;;;;14.10;49.63;101691.94;5029475;28;20045;-61
2022/04/15 03:50:22;;;;;;;23.75;9.30;;;;;;;14.07;49.55;101684.22;5029069;28;20045;-60
2022/04/15 03:52:50;;;;;;;20.70;8.32;;;;;;;14.02;49.46;101686.28;5029338;28;20103;-61
2022/04/15 03:55:21;;;;;;;23.02;9.27;;;;;;;13.99;49.61;101692.56;5029313;28;20085;-61
2022/04/15 03:57:49;;;;;;;16.13;8.23;;;;;;;13.95;49.71;101698.09;5029154;28;20045;-61
2022/04/15 04:00:20;;;;;;;16.83;7.95;;;;;;;13.90;49.90;101698.34;5029113;28;20045;-61
2022/04/15 04:02:49;;;;;;;20.75;8.75;;;;;;;13.88;49.88;101702.88;5029032;28;20496;-61
2022/04/15 04:05:16;;;;;;;18.85;8.90;;;;;;;13.84;49.86;101698.66;5029222;28;20100;-61
2022/04/15 04:07:44;;;;;;;20.40;8.65;;;;;;;13.85;50.03;101701.25;5029390;28;20515;-60
2022/04/15 04:10:12;;;;;;;20.88;8.73;;;;;;;13.84;49.98;101701.31;5037968;28;20452;-60
2022/04/15 04:12:39;;;;;;;20.23;8.77;;;;;;;13.82;50.04;101709.31;5049162;28;20052;-60
2022/04/15 04:15:07;;;;;;;15.75;8.02;;;;;;;13.84;50.06;101707.47;5048788;28;20053;-61
2022/04/15 04:17:34;;;;;;;18.17;8.30;;;;;;;13.83;49.91;101707.53;5049037;28;20049;-61
2022/04/15 04:20:01;;;;;;;16.25;7.90;;;;;;;13.84;50.08;101702.19;5048993;28;20095;-61
2022/04/15 04:22:29;;;;;;;20.17;8.15;;;;;;;13.86;50.12;101705.59;5048856;28;20098;-61
2022/04/15 04:24:56;;;;;;;16.83;8.82;;;;;;;13.88;50.01;101713.41;5048764;28;20099;-61
2022/04/15 04:27:24;;;;;;;22.48;8.70;;;;;;;13.81;50.34;101712.88;5045189;28;20103;-61
2022/04/15 04:29:50;;;;;;;14.55;8.57;;;;;;;13.76;50.52;101716.72;5033077;28;20938;-61
2022/04/15 04:32:19;;;;;;;17.58;8.65;;;;;;;13.70;50.59;101717.94;5033031;28;20045;-61
2022/04/15 04:34:45;;;;;;;19.10;9.13;;;;;;;13.69;50.61;101719.69;5033150;28;20085;-61
2022/04/15 04:37:12;;;;;;;17.92;8.45;;;;;;;13.64;50.74;101728.81;5033205;28;20068;-60
2022/04/15 04:39:39;;;;;;;20.90;8.27;;;;;;;13.64;50.68;101731.44;5032754;28;20521;-61
2022/04/15 04:42:07;;;;;;;16.08;8.32;;;;;;;13.64;50.75;101734.06;5032762;28;20050;-60
2022/04/15 04:44:35;;;;;;;15.70;9.05;;;;;;;13.66;50.82;101737.47;5032699;28;20057;-61
2022/04/15 04:47:02;;;;;;;15.30;8.60;;;;;;;13.66;50.93;101732.19;5032740;28;20111;-61
2022/04/15 04:49:28;;;;;;;17.05;9.00;;;;;;;13.63;50.98;101742.91;5032859;28;20103;-61
2022/04/15 04:51:55;;;;;;;20.52;9.18;;;;;;;13.62;51.05;101736.78;5032572;28;20119;-61
2022/04/15 04:54:22;;;;;;;16.83;8.73;;;;;;;13.66;51.13;101742.75;5032278;28;20054;-61
2022/04/15 04:56:49;;;;;;;26.02;9.68;;;;;;;13.64;50.94;101747.25;5032805;28;20085;-61
2022/04/15 04:59:15;;;;;;;28.13;9.25;;;;;;;13.64;51.04;101757.81;5031744;28;20494;-61
2022/04/15 05:01:42;;;;;;;30.33;8.30;;;;;;;13.65;51.21;101755.09;5032558;28;20103;-61
2022/04/15 05:04:09;;;;;;;35.63;8.73;;;;;;;13.69;51.13;101756.63;5032404;28;20085;-61
2022/04/15 05:06:36;;;;;;;32.05;8.82;;;;;;;13.71;50.89;101753.88;5032457;28;20123;-61
2022/04/15 05:09:02;;;;;;;28.70;9.82;;;;;;;13.74;50.97;101750.25;5032507;28;20080;-61
2022/04/15 05:11:29;;;;;;;33.03;9.95;;;;;;;13.79;50.84;101759.63;5032331;28;20072;-61
2022/04/15 05:13:55;;;;;;;29.27;10.23;;;;;;;13.83;50.87;101762.94;5032355;28;20095;-61
2022/04/15 05:16:22;;;;;;;20.90;9.25;;;;;;;13.90;51.10;101761.66;5032365;28;20127;-60
2022/04/15 05:18:49;;;;;;;19.60;9.02;;;;;;;13.98;50.98;101762.13;5032140;28;20049;-60
2022/04/15 05:21:15;;;;;;;17.92;9.27;;;;;;;14.06;51.14;101761.69;5031841;28;20050;-60
2022/04/15 05:23:42;;;;;;;23.00;10.20;;;;;;;14.17;50.90;101764.59;5034272;28;20130;-60
2022/04/15 05:26:08;;;;;;;17.80;9.57;;;;;;;14.25;51.11;101766.81;5048076;28;20452;-61
2022/04/15 05:28:36;;;;;;;19.33;9.02;;;;;;;14.32;51.06;101767.31;5045906;28;20456;-61
2022/04/15 05:31:03;;;;;;;18.10;8.57;;;;;;;14.41;50.92;101766.81;5032147;28;20462;-61
2022/04/15 05:33:30;;;;;;;18.63;9.13;;;;;;;14.49;51.14;101761.91;5032478;28;20127;-61
2022/04/15 05:35:57;;;;;;;19.67;9.63;;;;;;;14.61;51.00;101764.81;5051761;28;20067;-61
2022/04/15 05:38:23;;;;;;;5.00;3.00;;;;;;;14.79;51.14;101771.72;5051313;28;20072;-61
2022/04/15 05:40:51;;;;;;;22.35;9.57;;;;;;;15.28;50.32;101765.28;5051711;28;20045;-60
2022/04/15 05:43:17;;;;;;;16.80;9.32;;;;;;;15.11;50.69;101758.38;5051459;28;20091;-60
2022/04/15 05:45:44;;;;;;;15.52;8.85;;;;;;;15.11;50.49;101762.81;5051640;28;20163;-60
2022/04/15 05:48:10;;;;;;;16.65;9.23;;;;;;;15.15;50.34;101759.06;5051619;28;20075;-61
2022/04/15 05:50:37;;;;;;;17.08;8.90;;;;;;;15.17;50.63;101757.16;5042502;28;20131;-61
2022/04/15 05:53:04;;;;;;;29.42;9.57;;;;;;;15.22;50.43;101762.19;5051575;28;20099;-61
2022/04/15 05:55:31;;;;;;;17.02;8.85;;;;;;;15.26;50.25;101758.41;5051461;28;20053;-60
2022/04/15 05:57:57;;;;;;;17.60;8.50;;;;;;;15.33;50.08;101760.56;5051463;28;20605;-60
2022/04/15 06:00:24;;;;;;;17.27;8.82;;;;;;;15.40;50.04;101762.84;5051579;28;20052;-60
2022/04/15 06:02:51;;;;;;;19.13;8.65;;;;;;;15.45;49.93;101769.59;5051320;28;20095;-60
2022/04/15 06:05:22;;;;;;;18.08;9.30;;;;;;;15.52;49.69;101775.34;5049923;28;20045;-60
2022/04/15 06:07:49;;;;;;;20.00;9.38;;;;;;;15.50;49.57;101775.44;5031203;28;20383;-60
2022/04/15 06:10:15;;;;;;;20.58;9.25;;;;;;;15.59;49.16;101774.03;5031141;28;20077;-61
2022/04/15 06:12:54;;;;;;;20.38;9.48;;;;;;;15.67;49.04;101779.69;5031251;28;20444;-61
2022/04/15 06:15:22;;;;;;;20.65;9.20;;;;;;;15.75;48.75;101787.16;5031183;28;20046;-60
2022/04/15 06:17:49;;;;;;;19.48;9.23;;;;;;;15.82;48.69;101783.22;5030997;28;20127;-61
2022/04/15 06:20:19;;;;;;;20.83;9.38;;;;;;;15.87;48.49;101782.06;5031172;28;20088;-61
2022/04/15 06:22:45;;;;;;;23.15;9.55;;;;;;;15.96;48.64;101789.44;5030211;28;20041;-61
2022/04/15 06:25:12;;;;;;;26.92;9.73;;;;;;;16.03;48.25;101787.25;5030553;28;20046;-61
2022/04/15 06:27:39;;;;;;;23.35;9.93;;;;;;;16.09;48.14;101784.25;5030750;28;20045;-61
2022/04/15 06:30:07;;;;;;;20.70;9.00;;;;;;;16.16;47.91;101785.53;5030641;28;20069;-61
2022/04/15 06:32:35;;;;;;;21.30;9.68;;;;;;;16.22;47.94;101781.66;5030826;28;20045;-61
2022/04/15 06:35:03;;;;;;;25.75;11.05;;;;;;;16.28;47.28;101786.56;5030524;28;20049;-61
2022/04/15 06:37:29;;;;;;;19.92;11.05;;;;;;;16.32;47.74;101785.41;5041457;28;20474;-61
2022/04/15 06:39:56;;;;;;;18.58;10.05;;;;;;;16.36;47.49;101780.78;5039432;28;20418;-62
2022/04/15 06:42:28;;;;;;;22.05;9.95;;;;;;;16.48;46.95;101774.66;5030308;28;20050;-60
2022/04/15 06:44:54;;;;;;;18.33;8.68;;;;;;;16.54;46.85;101779.56;5030206;28;20160;-61
2022/04/15 06:47:21;;;;;;;16.60;8.70;;;;;;;16.63;46.09;101778.09;5030402;28;20068;-60
2022/04/15 06:49:47;;;;;;;15.25;8.07;;;;;;;16.64;45.41;101775.34;5041420;28;20068;-61
2022/04/15 06:52:15;;;;;;;14.63;8.00;;;;;;;16.73;44.44;101773.06;5049551;28;20486;-61
2022/04/15 06:54:41;;;;;;;15.45;8.57;;;;;;;16.77;44.14;101770.09;5047363;28;20088;-61
2022/04/15 06:57:09;;;;;;;15.38;8.23;;;;;;;16.86;43.64;101770.44;5043202;28;20037;-61
2022/04/15 06:59:36;;;;;;;15.40;8.07;;;;;;;16.94;43.14;101762.84;5048529;28;20041;-61
2022/04/15 07:02:03;;;;;;;12.05;7.18;;;;;;;17.10;42.14;101760.88;5049590;28;20065;-63
2022/04/15 07:04:32;;;;;;;15.18;8.02;;;;;;;17.27;41.46;101761.50;5045769;28;20060;-61
2022/04/15 07:06:59;;;;;;;11.43;7.35;;;;;;;17.35;40.90;101759.16;5046716;28;20048;-60
2022/04/15 07:09:26;;;;;;;14.85;7.90;;;;;;;17.37;41.30;101767.00;5047188;28;20374;-61
2022/04/15 07:11:53;;;;;;;16.38;8.88;;;;;;;17.49;40.72;101767.97;5049758;28;20086;-61
2022/04/15 07:14:20;;;;;;;18.92;9.52;;;;;;;17.52;41.17;101770.41;5029618;28;20107;-62
2022/04/15 07:16:46;;;;;;;13.57;8.00;;;;;;;17.66;41.55;101766.78;5029973;28;20060;-61
2022/04/15 07:19:13;;;;;;;16.85;8.57;;;;;;;17.76;41.29;101775.78;5029591;28;20136;-61
2022/04/15 07:21:42;;;;;;;17.30;9.52;;;;;;;17.90;40.90;101769.50;5030046;28;20099;-62
2022/04/15 07:24:09;;;;;;;12.88;8.50;;;;;;;18.01;41.00;101777.59;5029942;28;20092;-61
2022/04/15 07:26:37;;;;;;;14.85;8.48;;;;;;;18.10;40.51;101773.41;5029835;28;20084;-61
2022/04/15 07:29:04;;;;;;;15.48;8.40;;;;;;;18.15;40.83;101773.94;5029402;28;20056;-61
2022/04/15 07:31:32;;;;;;;13.25;7.93;;;;;;;18.33;40.16;101779.72;5029058;28;20049;-61
2022/04/15 07:34:00;;;;;;;15.35;8.32;;;;;;;18.43;40.05;101772.75;5029528;28;20811;-62
2022/04/15 07:39:06;;;;;;;13.32;7.47;;;;;;;18.64;38.73;101769.50;5046982;28;20427;-62
2022/04/15 07:41:38;;;;;;;14.57;7.28;;;;;;;18.74;38.02;101767.84;5048757;28;20501;-61
2022/04/15 07:44:09;;;;;;;14.27;7.63;;;;;;;18.63;37.78;101761.59;5048316;28;20095;-61
2022/04/15 07:46:37;;;;;;;16.17;7.85;;;;;;;18.79;37.28;101763.97;5041539;28;20095;-61
2022/04/15 07:49:05;;;;;;;16.73;8.50;;;;;;;18.85;36.79;101759.03;5046325;28;20079;-64
2022/04/15 07:51:33;;;;;;;13.80;7.57;;;;;;;18.95;36.41;101755.72;5048558;28;20114;-61
2022/04/15 07:54:00;;;;;;;14.25;7.93;;;;;;;19.06;36.20;101751.28;5046072;28;20049;-63
2022/04/15 07:56:26;;;;;;;21.77;9.98;;;;;;;19.20;35.87;101747.53;5048050;28;20045;-63
2022/04/15 07:58:53;;;;;;;16.20;9.25;;;;;;;19.31;36.36;101743.19;5048302;28;20076;-62
2022/04/15 08:01:20;;;;;;;16.30;8.02;;;;;;;19.41;36.30;101739.72;5042288;28;20076;-62
2022/04/15 08:03:48;;;;;;;20.17;8.75;;;;;;;19.58;36.18;101740.19;5044603;28;20078;-61
2022/04/15 08:06:15;;;;;;;17.45;9.18;;;;;;;19.69;36.35;101742.00;5044466;28;20041;-61
2022/04/15 08:08:41;;;;;;;17.83;9.15;;;;;;;19.89;36.30;101749.25;5046979;28;20071;-61
2022/04/15 08:11:09;;;;;;;18.58;9.40;;;;;;;19.96;36.21;101743.44;5048579;28;20132;-61
2022/04/15 08:13:36;;;;;;;14.88;9.02;;;;;;;20.00;36.17;101744.91;5049146;28;20049;-62
2022/04/15 08:16:04;;;;;;;14.95;8.73;;;;;;;20.18;35.91;101742.56;5048638;28;20045;-62
2022/04/15 08:18:30;;;;;;;14.60;7.53;;;;;;;20.19;35.72;101745.09;5048569;28;20516;-61
2022/04/15 08:20:57;;;;;;;17.00;8.35;;;;;;;20.26;35.90;101744.59;5045121;28;20453;-61
2022/04/15 08:23:23;;;;;;;15.35;7.78;;;;;;;20.33;35.48;101749.28;5028965;28;20453;-61
2022/04/15 08:25:50;;;;;;;15.27;8.75;;;;;;;20.49;35.50;101740.03;5028899;28;20049;-61
2022/04/15 08:28:21;;;;;;;9.80;6.75;;;;;;;20.66;34.93;101742.13;5029143;28;20505;-61
2022/04/15 08:30:48;;;;;;;10.88;6.57;;;;;;;20.68;35.12;101750.88;5029121;28;20046;-61
2022/04/15 08:33:14;;;;;;;12.52;8.40;;;;;;;20.85;34.24;101749.47;5028567;28;20506;-61
2022/04/15 08:35:41;;;;;;;13.55;7.30;;;;;;;20.79;34.33;101752.66;5028824;28;20128;-62
2022/04/15 08:38:07;;;;;;;8.50;5.82;;;;;;;20.86;33.58;101747.63;5028512;28;20505;-61
2022/04/15 08:40:36;;;;;;;9.93;5.45;;;;;;;20.97;32.71;101744.91;5028867;28;20080;-61
2022/04/15 08:43:05;;;;;;;12.18;5.80;;;;;;;21.11;32.36;101730.38;5028812;28;20045;-62
2022/04/15 08:45:42;;;;;;;11.65;5.80;;;;;;;21.23;32.08;101725.81;5028784;28;20056;-61
2022/04/15 08:48:18;;;;;;;13.52;5.88;;;;;;;21.34;31.40;101728.41;5037842;28;20051;-61
2022/04/15 08:50:59;;;;;;;13.98;6.90;;;;;;;21.47;31.31;101721.97;5046753;28;20386;-61
2022/04/15 08:53:28;;;;;;;14.70;7.10;;;;;;;21.66;31.30;101723.88;5045521;28;20116;-61
2022/04/15 08:55:56;;;;;;;12.15;7.38;;;;;;;21.67;31.80;101728.25;5046703;28;20396;-61
2022/04/15 08:58:25;;;;;;;12.52;7.47;;;;;;;22.03;31.43;101728.66;5042534;28;20085;-61
2022/04/15 09:00:51;;;;;;;12.23;6.88;;;;;;;22.25;31.54;101724.03;5040580;28;20080;-61
2022/04/15 09:03:18;;;;;;;12.10;7.40;;;;;;;22.33;31.65;101725.03;5048040;28;20044;-61
2022/04/15 09:05:49;;;;;;;13.75;8.32;;;;;;;22.45;31.61;101717.72;5048378;28;20720;-61
2022/04/15 09:08:16;;;;;;;13.07;7.90;;;;;;;22.58;31.93;101712.06;5047597;28;20048;-62
2022/04/15 09:10:43;;;;;;;13.60;7.63;;;;;;;22.72;31.95;101709.97;5041814;28;20447;-61
2022/04/15 09:13:34;;;;;;;17.83;7.18;;;;;;;22.84;31.96;101708.78;5047820;28;20133;-62
2022/04/15 09:16:01;;;;;;;11.43;7.30;;;;;;;22.95;31.69;101713.97;5050344;28;20059;-62
2022/04/15 09:18:29;;;;;;;14.88;7.50;;;;;;;23.07;31.59;101714.66;5051602;28;20045;-61
2022/04/15 09:21:15;;;;;;;12.05;7.13;;;;;;;23.23;30.57;101706.03;5052548;28;20079;-61
2022/04/15 09:23:44;;;;;;;10.73;7.57;;;;;;;23.25;30.63;101711.25;5052183;28;20357;-62
2022/04/15 09:26:11;;;;;;;12.70;7.90;;;;;;;23.45;30.39;101701.28;5040713;28;20088;-61
2022/04/15 09:28:37;;;;;;;11.75;7.18;;;;;;;23.52;29.78;101698.88;5050641;28;20073;-61
2022/04/15 09:31:04;;;;;;;15.38;7.07;;;;;;;23.68;29.76;101695.53;5051214;28;20124;-61
2022/04/15 09:33:31;;;;;;;11.43;6.80;;;;;;;23.84;29.42;101702.94;5052031;28;20049;-61
2022/04/15 09:35:57;;;;;;;15.20;8.48;;;;;;;23.99;29.37;101698.75;5051778;28;20091;-61
2022/04/15 09:38:55;;;;;;;14.93;9.93;;;;;;;23.87;29.84;101695.44;5051771;28;20048;-62
2022/04/15 09:41:23;;;;;;;14.88;8.23;;;;;;;24.09;29.51;101694.16;5051416;28;20107;-62
2022/04/15 09:43:52;;;;;;;13.52;9.18;;;;;;;24.37;29.65;101693.25;5034940;28;20081;-62
2022/04/15 09:46:19;;;;;;;28.05;10.52;;;;;;;24.43;30.00;101689.94;5031573;28;20461;-62
2022/04/15 09:49:03;;;;;;;14.43;8.10;;;;;;;24.22;30.20;101683.03;5031726;28;20763;-62
2022/04/15 09:51:40;;;;;;;13.05;8.23;;;;;;;24.12;30.01;101690.31;5031737;28;20063;-62
2022/04/15 09:54:11;;;;;;;20.95;8.27;;;;;;;24.11;30.19;101688.63;5031457;28;20049;-61
2022/04/15 09:56:39;;;;;;;16.08;8.75;;;;;;;24.02;30.13;101697.59;5046706;28;20076;-62
2022/04/15 09:59:08;;;;;;;16.80;8.00;;;;;;;24.19;29.72;101682.50;5051142;28;20083;-61
2022/04/15 10:01:41;;;;;;;15.77;8.05;;;;;;;24.37;29.63;101690.56;5034011;28;20053;-63
2022/04/15 10:04:10;;;;;;;11.82;6.97;;;;;;;24.47;29.25;101691.31;5031439;28;20060;-62
2022/04/15 10:06:38;;;;;;;17.33;8.13;;;;;;;24.39;29.32;101689.41;5031394;28;20111;-61
2022/04/15 10:09:06;;;;;;;16.85;7.45;;;;;;;24.43;29.04;101685.41;5031251;28;20080;-62
2022/04/15 10:11:35;;;;;;;14.55;6.88;;;;;;;24.56;28.93;101686.84;5031564;28;20060;-61
2022/04/15 10:14:03;;;;;;;16.75;7.32;;;;;;;24.54;28.95;101687.00;5031144;28;20091;-64
2022/04/15 10:16:32;;;;;;;15.40;7.07;;;;;;;24.54;28.62;101681.63;5042286;28;20053;-62
2022/04/15 10:19:02;;;;;;;10.93;6.28;;;;;;;24.60;28.43;101674.81;5050807;28;20140;-62
2022/04/15 10:21:37;;;;;;;16.23;6.20;;;;;;;24.67;28.13;101675.03;5050862;28;20045;-62
2022/04/15 10:24:07;;;;;;;;;;;;;;;24.82;28.07;101665.41;5051101;28;20045;-62
2022/04/15 10:26:38;;;;;;;12.68;5.50;;;;;;;24.96;27.62;101660.47;5049496;28;19960;-58
2022/04/15 10:29:05;;;;;;;13.93;4.90;;;;;;;24.82;27.32;101662.72;5050170;28;20044;-62
2022/04/15 10:31:43;;;;;;;49.90;6.82;;;;;;;25.05;26.49;101668.41;5050284;28;20455;-62
2022/04/15 10:34:15;;;;;;;11.07;5.10;;;;;;;25.10;26.24;101663.41;5047952;28;20094;-61
2022/04/15 10:36:50;;;;;;;11.23;5.13;;;;;;;25.23;25.70;101651.34;5050372;28;20147;-62
2022/04/15 10:39:25;;;;;;;11.95;5.00;;;;;;;25.35;25.73;101657.28;5050519;28;20449;-62
2022/04/15 10:42:01;;;;;;;10.32;5.05;;;;;;;25.28;25.66;101651.72;5050529;28;20450;-62
2022/04/15 10:44:38;;;;;;;8.70;4.43;;;;;;;25.55;25.20;101650.66;5050170;28;20048;-67
2022/04/15 10:47:17;;;;;;;10.77;4.43;;;;;;;25.59;25.15;101648.50;5050278;28;20045;-65
2022/04/15 10:49:53;;;;;;;11.93;4.32;;;;;;;25.63;24.77;101641.78;5041183;28;20091;-67
2022/04/15 10:52:24;;;;;;;9.80;4.68;;;;;;;25.54;24.68;101643.59;5030378;28;20107;-65
2022/04/15 10:54:57;;;;;;;11.00;4.72;;;;;;;25.70;24.53;101637.44;5030086;28;20050;-66
2022/04/15 10:57:31;;;;;;;8.95;4.43;;;;;;;25.76;24.34;101625.16;5030216;28;20041;-66
2022/04/15 11:02:44;;;;;;;;;;;;;;;25.65;23.84;101617.41;5030519;28;20046;-63
2022/04/15 11:05:41;;;;;;;6.15;3.58;;;;;;;25.77;23.52;101615.25;5029244;28;19956;-67
2022/04/15 11:08:13;;;;;;;6.18;3.78;;;;;;;25.84;23.63;101610.88;5026283;28;20053;-67
2022/04/15 11:11:07;;;;;;;6.32;3.88;;;;;;;25.89;23.85;101601.31;5033489;28;20103;-67
2022/04/15 11:13:40;;;;;;;7.15;4.07;;;;;;;26.03;23.77;101604.31;5048765;28;20049;-67
2022/04/15 11:16:10;;;;;;;5.43;4.07;;;;;;;26.06;24.20;101604.88;5048187;28;20049;-64
2022/04/15 11:18:42;;;;;;;5.53;3.75;;;;;;;26.10;24.02;101600.00;5048509;28;20551;-64
2022/04/15 11:21:21;;;;;;;4.45;3.10;;;;;;;26.12;23.92;101595.31;5047323;28;20489;-66
2022/04/15 11:23:51;;;;;;;5.38;2.90;;;;;;;26.14;23.57;101590.56;5034148;28;20230;-64
2022/04/15 11:26:22;;;;;;;3.95;2.90;;;;;;;26.02;23.24;101591.91;5029494;28;20643;-64
2022/04/15 11:28:51;;;;;;;7.93;3.55;;;;;;;26.10;23.16;101583.84;5029785;28;20049;-65